Time;durP1;ratioP1;P1;durP2;ratioP2;P2;SDS_P1;SDS_P2;PMS_P1;PMS_P2;Temp;Humidity;BMP_temperature;BMP_pressure;BME280_temperature;BME280_humidity;BME280_pressure;Samples;Min_cycle;Max_cycle;Signal;HPM_P1;HPM_P2
2023/07/28 00:01:32;;;;;;;2.60;2.40;;;21.30;94.10;;;;;;5012336;28;20522;-86
2023/07/28 00:04:00;;;;;;;2.67;2.47;;;21.30;94.10;;;;;;5019993;28;20473;-85
2023/07/28 00:06:25;;;;;;;2.13;2.03;;;21.30;94.20;;;;;;5019866;28;20503;-85
2023/07/28 00:08:51;;;;;;;2.50;2.40;;;21.30;94.30;;;;;;5003260;28;20295;-87
2023/07/28 00:11:17;;;;;;;2.50;2.30;;;21.30;94.30;;;;;;5007022;28;20330;-86
2023/07/28 00:13:43;;;;;;;1.93;1.83;;;21.30;94.10;;;;;;5008545;28;20435;-86
2023/07/28 00:16:10;;;;;;;2.60;2.40;;;21.30;94.10;;;;;;5039865;28;20293;-87
2023/07/28 00:18:36;;;;;;;8.53;2.60;;;21.30;94.10;;;;;;5022558;28;20550;-87
2023/07/28 00:21:05;;;;;;;2.50;2.30;;;21.30;94.10;;;;;;5039569;28;20464;-86
2023/07/28 00:23:38;;;;;;;2.10;2.00;;;21.30;94.10;;;;;;5052050;28;20779;-86
2023/07/28 00:26:06;;;;;;;3.00;2.43;;;21.30;94.00;;;;;;5036590;28;20880;-86
2023/07/28 00:28:32;;;;;;;2.83;2.27;;;21.30;94.00;;;;;;5019131;28;20461;-86
2023/07/28 00:30:58;;;;;;;2.97;2.30;;;21.30;94.10;;;;;;5003039;28;20525;-86
2023/07/28 00:33:27;;;;;;;2.40;2.17;;;21.30;94.10;;;;;;5019479;28;20226;-86
2023/07/28 00:35:53;;;;;;;2.27;2.17;;;21.30;94.10;;;;;;5018941;28;20555;-87
2023/07/28 00:38:19;;;;;;;2.37;2.17;;;21.30;94.10;;;;;;5002640;28;20204;-85
2023/07/28 00:40:44;;;;;;;2.37;2.17;;;21.30;94.10;;;;;;5002687;28;20583;-86
2023/07/28 00:43:12;;;;;;;2.60;2.40;;;21.30;94.10;;;;;;5024493;28;20511;-87
2023/07/28 00:45:38;;;;;;;2.23;2.13;;;21.30;94.10;;;;;;5027055;28;20419;-87
2023/07/28 00:48:09;;;;;;;2.40;2.30;;;21.30;94.10;;;;;;5017639;28;20450;-86
2023/07/28 00:50:37;;;;;;;4.00;2.90;;;21.30;94.10;;;;;;5056286;28;20442;-87
2023/07/28 00:53:03;;;;;;;2.60;2.40;;;21.30;94.10;;;;;;5051925;28;20897;-86
2023/07/28 00:55:31;;;;;;;2.50;2.30;;;21.30;94.00;;;;;;5002192;28;20459;-86
2023/07/28 00:57:57;;;;;;;2.97;2.67;;;21.20;94.00;;;;;;5018157;28;20472;-86
2023/07/28 01:00:26;;;;;;;2.73;2.57;;;21.20;94.00;;;;;;5018585;28;20499;-85
2023/07/28 01:02:54;;;;;;;2.60;2.40;;;21.20;94.00;;;;;;5021035;28;20433;-88
2023/07/28 01:05:27;;;;;;;2.57;2.37;;;21.20;94.10;;;;;;5019890;28;20419;-86
2023/07/28 01:08:08;;;;;;;2.80;2.60;;;21.20;94.40;;;;;;4998739;28;20467;-87
2023/07/28 01:10:38;;;;;;;2.40;2.23;;;21.20;94.30;;;;;;4999020;28;20428;-85
2023/07/28 01:13:04;;;;;;;4.60;2.60;;;21.20;94.20;;;;;;4999175;28;20424;-86
2023/07/28 01:15:33;;;;;;;3.03;2.47;;;21.20;94.20;;;;;;5033628;28;20483;-86
2023/07/28 01:17:58;;;;;;;4.63;2.80;;;21.20;94.20;;;;;;5021550;28;20553;-85
2023/07/28 01:20:31;;;;;;;4.10;2.33;;;21.20;94.10;;;;;;5037770;28;20757;-85
2023/07/28 01:23:09;;;;;;;2.53;2.43;;;21.20;94.10;;;;;;5021306;28;20430;-86
2023/07/28 01:26:10;;;;;;;2.40;2.20;;;21.20;94.10;;;;;;5038089;28;20450;-87
2023/07/28 01:28:41;;;;;;;3.10;2.10;;;21.20;94.10;;;;;;5013032;28;20782;-87
2023/07/28 01:31:07;;;;;;;2.83;2.63;;;21.20;94.10;;;;;;5002028;28;20421;-86
2023/07/28 01:33:34;;;;;;;3.97;2.80;;;21.20;94.10;;;;;;5018203;28;20525;-87
2023/07/28 01:36:00;;;;;;;2.40;2.30;;;21.20;94.50;;;;;;5018188;28;20493;-86
2023/07/28 01:38:30;;;;;;;2.70;2.50;;;21.20;94.20;;;;;;5031094;28;20465;-86
2023/07/28 01:40:56;;;;;;;2.50;2.30;;;21.20;94.10;;;;;;5011378;28;20463;-85
2023/07/28 01:43:21;;;;;;;2.50;2.40;;;21.20;94.20;;;;;;5017828;28;20455;-87
2023/07/28 01:45:47;;;;;;;2.30;2.20;;;21.20;94.10;;;;;;4985085;28;20993;-85
2023/07/28 01:48:13;;;;;;;2.37;2.27;;;21.20;94.00;;;;;;5009877;28;20438;-86
2023/07/28 01:50:39;;;;;;;2.60;2.40;;;21.20;94.00;;;;;;5018188;28;20435;-86
2023/07/28 01:53:06;;;;;;;2.57;2.37;;;21.20;94.00;;;;;;5017819;28;20496;-87
2023/07/28 01:55:32;;;;;;;2.50;2.40;;;21.20;93.90;;;;;;5001555;28;20192;-84
2023/07/28 01:58:02;;;;;;;2.70;2.50;;;21.20;93.90;;;;;;5017712;28;20554;-85
2023/07/28 02:00:31;;;;;;;2.40;2.30;;;21.20;93.90;;;;;;4985300;28;20444;-86
2023/07/28 02:02:58;;;;;;;3.20;2.67;;;21.20;94.00;;;;;;5006936;28;20462;-86
2023/07/28 02:06:15;;;;;;;3.17;2.40;;;21.20;94.00;;;;;;5020824;28;20671;-85
2023/07/28 02:09:34;;;;;;;2.27;2.17;;;21.20;93.90;;;;;;5021796;28;20449;-86
2023/07/28 02:11:59;;;;;;;2.73;2.53;;;21.20;93.90;;;;;;5029916;28;20430;-84
2023/07/28 02:14:25;;;;;;;2.33;2.20;;;21.20;93.90;;;;;;5004476;28;20428;-85
2023/07/28 02:16:51;;;;;;;3.80;2.90;;;21.20;93.90;;;;;;5020837;28;20453;-85
2023/07/28 02:19:17;;;;;;;3.00;2.80;;;21.20;93.90;;;;;;5020356;28;20180;-86
2023/07/28 02:21:45;;;;;;;2.47;2.27;;;21.20;93.90;;;;;;5015170;28;20957;-85
2023/07/28 02:24:13;;;;;;;2.83;2.63;;;21.10;93.80;;;;;;5017760;28;20411;-84
2023/07/28 02:26:46;;;;;;;2.17;2.07;;;21.20;93.90;;;;;;5001255;28;20420;-85
2023/07/28 02:29:12;;;;;;;2.10;2.00;;;21.20;93.80;;;;;;5001368;28;20944;-85
2023/07/28 02:31:40;;;;;;;2.50;2.40;;;21.10;93.80;;;;;;5004209;28;20429;-86
2023/07/28 02:34:06;;;;;;;2.70;2.50;;;21.20;93.80;;;;;;5036806;28;20184;-85
2023/07/28 02:36:34;;;;;;;2.23;2.07;;;21.10;93.70;;;;;;5054512;28;20809;-86
2023/07/28 02:39:00;;;;;;;2.60;2.40;;;21.10;93.70;;;;;;5020285;28;20521;-86
2023/07/28 02:41:26;;;;;;;2.10;2.00;;;21.10;93.80;;;;;;5020424;28;20662;-85
2023/07/28 02:43:56;;;;;;;2.60;2.27;;;21.10;93.80;;;;;;5024851;28;20211;-85
2023/07/28 02:46:25;;;;;;;2.47;2.30;;;21.10;93.80;;;;;;5017608;28;20435;-87
2023/07/28 02:48:51;;;;;;;2.37;2.27;;;21.10;93.80;;;;;;5034066;28;20431;-86
2023/07/28 02:51:19;;;;;;;2.20;2.10;;;21.10;93.80;;;;;;5017018;28;20437;-86
2023/07/28 02:53:47;;;;;;;4.73;2.20;;;21.10;93.70;;;;;;4984301;28;20800;-87
2023/07/28 02:56:16;;;;;;;2.87;2.50;;;21.10;93.70;;;;;;5016767;28;20617;-85
2023/07/28 02:58:41;;;;;;;2.77;2.57;;;21.10;93.70;;;;;;5000441;28;20482;-86
2023/07/28 03:01:10;;;;;;;2.83;2.63;;;21.10;94.10;;;;;;5004060;28;20515;-86
2023/07/28 03:03:38;;;;;;;2.47;2.37;;;21.10;93.80;;;;;;5020749;28;20491;-85
2023/07/28 03:06:05;;;;;;;2.80;2.60;;;21.10;93.90;;;;;;5017483;28;20764;-87
2023/07/28 03:08:33;;;;;;;2.97;2.40;;;21.10;93.90;;;;;;4984945;28;20451;-84
2023/07/28 03:11:18;;;;;;;2.70;2.50;;;21.10;93.90;;;;;;4986983;28;20549;-85
2023/07/28 03:13:44;;;;;;;2.50;2.40;;;21.10;93.90;;;;;;5000324;28;20453;-85
2023/07/28 03:16:17;;;;;;;2.60;2.50;;;21.10;93.90;;;;;;5017016;28;20426;-86
2023/07/28 03:18:43;;;;;;;2.20;2.10;;;21.10;93.80;;;;;;5000159;28;20465;-85
2023/07/28 03:21:09;;;;;;;2.30;2.20;;;21.10;93.90;;;;;;5019752;28;20781;-87
2023/07/28 03:23:38;;;;;;;2.73;2.53;;;21.10;93.90;;;;;;5019858;28;20552;-85
2023/07/28 03:26:04;;;;;;;2.37;2.27;;;21.10;94.20;;;;;;5036592;28;20460;-86
2023/07/28 03:28:30;;;;;;;2.60;2.50;;;21.10;93.80;;;;;;5019899;28;20429;-86
2023/07/28 03:30:59;;;;;;;2.60;2.50;;;21.10;93.80;;;;;;5021196;28;20453;-85
2023/07/28 03:33:28;;;;;;;2.60;2.50;;;21.10;93.80;;;;;;5008202;28;20455;-85
2023/07/28 03:35:56;;;;;;;2.67;2.57;;;21.10;93.70;;;;;;5017053;28;20430;-86
2023/07/28 03:38:24;;;;;;;2.60;2.50;;;21.10;93.70;;;;;;5004600;28;20548;-86
2023/07/28 03:40:52;;;;;;;2.77;2.60;;;21.10;93.70;;;;;;4985420;28;20463;-87
2023/07/28 03:43:21;;;;;;;2.70;2.50;;;21.10;93.80;;;;;;4984934;28;20582;-86
2023/07/28 03:45:47;;;;;;;2.57;2.47;;;21.10;93.70;;;;;;5001025;28;20430;-86
2023/07/28 03:48:13;;;;;;;2.40;2.30;;;21.10;93.70;;;;;;5003144;28;20498;-86
2023/07/28 03:50:39;;;;;;;2.40;2.30;;;21.10;93.70;;;;;;5006472;28;20461;-86
2023/07/28 03:53:07;;;;;;;2.50;2.40;;;21.10;93.60;;;;;;5004843;28;20426;-86
2023/07/28 03:55:35;;;;;;;3.40;2.40;;;21.10;93.60;;;;;;5004406;28;20496;-86
2023/07/28 03:58:01;;;;;;;2.90;2.70;;;21.10;93.60;;;;;;5033445;28;20232;-87
2023/07/28 04:00:30;;;;;;;2.50;2.30;;;21.10;93.60;;;;;;5027489;28;20427;-86
2023/07/28 04:02:56;;;;;;;2.20;2.10;;;21.10;93.60;;;;;;5005371;28;20534;-85
2023/07/28 04:05:24;;;;;;;3.13;2.20;;;21.10;93.50;;;;;;5021452;28;20435;-86
2023/07/28 04:07:52;;;;;;;2.23;2.13;;;21.10;93.50;;;;;;5019994;28;20250;-86
2023/07/28 04:10:23;;;;;;;2.80;2.70;;;21.10;93.50;;;;;;5010720;28;20436;-86
2023/07/28 04:12:51;;;;;;;2.40;2.30;;;21.10;93.40;;;;;;4999489;28;20427;-87
2023/07/28 04:15:17;;;;;;;2.60;2.50;;;21.10;93.50;;;;;;4983393;28;20452;-86
2023/07/28 04:17:42;;;;;;;6.07;2.70;;;21.00;93.40;;;;;;4983445;28;20287;-86
2023/07/28 04:20:09;;;;;;;2.30;2.20;;;21.10;93.40;;;;;;4983592;28;20181;-87
2023/07/28 04:22:39;;;;;;;2.60;2.43;;;21.10;93.40;;;;;;4967750;28;20809;-86
2023/07/28 04:25:06;;;;;;;2.40;2.30;;;21.00;93.30;;;;;;4983738;28;20759;-87
2023/07/28 04:27:33;;;;;;;2.40;2.20;;;21.00;93.30;;;;;;4992608;28;20458;-87
2023/07/28 04:30:07;;;;;;;2.67;2.57;;;21.10;93.40;;;;;;5031439;28;20437;-85
2023/07/28 04:32:33;;;;;;;2.40;2.30;;;21.00;93.40;;;;;;5006743;28;20864;-84
2023/07/28 04:35:08;;;;;;;2.30;2.20;;;21.00;93.30;;;;;;5038581;28;20781;-86
2023/07/28 04:37:59;;;;;;;2.87;2.77;;;21.00;93.30;;;;;;5035558;28;20465;-87
2023/07/28 04:40:42;;;;;;;2.20;2.10;;;21.00;93.30;;;;;;5001836;28;20784;-86
2023/07/28 04:43:12;;;;;;;2.60;2.50;;;21.00;93.40;;;;;;4998721;28;20728;-87
2023/07/28 04:45:39;;;;;;;2.43;2.33;;;21.00;93.40;;;;;;4998910;28;20458;-85
2023/07/28 04:48:13;;;;;;;2.83;2.60;;;21.00;93.40;;;;;;4983328;28;20507;-87
2023/07/28 04:50:39;;;;;;;2.57;2.47;;;21.00;93.50;;;;;;5036794;28;20913;-87
2023/07/28 04:53:45;;;;;;;2.37;2.20;;;21.00;93.60;;;;;;4967574;28;20192;-86
2023/07/28 04:56:18;;;;;;;2.57;2.37;;;21.00;93.50;;;;;;4947965;28;20429;-87
2023/07/28 04:58:44;;;;;;;2.13;2.03;;;21.00;93.50;;;;;;5002055;28;20478;-86
2023/07/28 05:01:13;;;;;;;2.60;2.40;;;21.00;93.50;;;;;;5021286;28;20438;-86
2023/07/28 05:03:46;;;;;;;2.10;2.00;;;21.00;93.50;;;;;;5028434;28;20451;-87
2023/07/28 05:06:29;;;;;;;2.80;2.30;;;21.00;93.50;;;;;;5024476;28;20411;-86
2023/07/28 05:08:57;;;;;;;5.20;2.30;;;21.00;93.50;;;;;;5003695;28;20514;-86
2023/07/28 05:11:33;;;;;;;2.10;2.00;;;21.00;93.40;;;;;;5004022;28;20464;-87
2023/07/28 05:14:02;;;;;;;2.40;2.30;;;21.00;93.40;;;;;;5009509;28;20437;-88
2023/07/28 05:16:28;;;;;;;2.37;2.27;;;21.00;93.40;;;;;;5044929;28;20481;-86
2023/07/28 05:19:17;;;;;;;2.30;2.20;;;21.00;93.50;;;;;;5047824;28;20458;-87
2023/07/28 05:22:00;;;;;;;2.53;2.33;;;21.00;93.50;;;;;;5003829;28;20432;-87
2023/07/28 05:25:20;;;;;;;3.20;2.40;;;21.00;93.50;;;;;;5013900;23;20449;31
2023/07/28 05:27:47;;;;;;;2.60;2.50;;;21.00;94.10;;;;;;5006879;28;20514;-77
2023/07/28 05:30:15;;;;;;;2.50;2.30;;;21.00;94.30;;;;;;4974584;28;20468;-77
2023/07/28 05:32:46;;;;;;;2.40;2.30;;;21.00;94.50;;;;;;4987660;28;20463;-77
2023/07/28 05:35:33;;;;;;;2.60;2.50;;;21.00;94.40;;;;;;4988467;28;20863;-77
2023/07/28 05:38:01;;;;;;;2.50;2.40;;;21.00;94.20;;;;;;4975238;28;20860;-75
2023/07/28 05:40:30;;;;;;;2.57;2.43;;;21.00;94.60;;;;;;4976647;28;20505;-76
2023/07/28 05:42:56;;;;;;;2.50;2.30;;;21.00;94.70;;;;;;4977917;28;20441;-74
2023/07/28 05:45:22;;;;;;;2.67;2.57;;;21.00;94.80;;;;;;4974086;28;20432;-75
2023/07/28 05:47:50;;;;;;;2.30;2.20;;;21.00;94.80;;;;;;4991079;28;20425;-74
2023/07/28 05:50:16;;;;;;;2.50;2.40;;;21.00;94.60;;;;;;4957452;28;20482;-74
2023/07/28 05:52:45;;;;;;;2.57;2.47;;;21.00;94.70;;;;;;4987141;28;20446;-74
2023/07/28 05:55:13;;;;;;;2.50;2.30;;;21.00;94.60;;;;;;4979296;28;20460;-74
2023/07/28 05:57:44;;;;;;;2.37;2.27;;;21.00;94.50;;;;;;4976502;28;20518;-74
2023/07/28 06:00:12;;;;;;;2.80;2.60;;;21.00;94.80;;;;;;4972552;28;20452;-74
2023/07/28 06:02:44;;;;;;;2.60;2.40;;;21.00;94.80;;;;;;4989287;28;20552;-73
2023/07/28 06:05:21;;;;;;;3.07;2.87;;;21.00;94.90;;;;;;4967360;28;20500;-74
2023/07/28 06:07:49;;;;;;;2.60;2.30;;;21.00;94.90;;;;;;4972191;28;20456;-74
2023/07/28 06:10:16;;;;;;;2.40;2.30;;;21.00;94.60;;;;;;4981106;28;20460;-74
2023/07/28 06:12:41;;;;;;;2.47;2.27;;;21.00;94.70;;;;;;4989523;28;21110;-74
2023/07/28 06:15:08;;;;;;;2.73;2.57;;;21.00;94.80;;;;;;4960304;28;20523;-74
2023/07/28 06:17:37;;;;;;;2.73;2.50;;;21.00;94.90;;;;;;4968001;28;20879;-74
2023/07/28 06:20:07;;;;;;;2.30;2.20;;;21.00;94.80;;;;;;4988148;28;20455;-74
2023/07/28 06:22:35;;;;;;;3.30;3.10;;;21.00;94.80;;;;;;4972146;28;20431;-75
2023/07/28 06:25:02;;;;;;;2.70;2.60;;;21.00;95.00;;;;;;4972340;28;20425;-74
2023/07/28 06:27:31;;;;;;;2.53;2.33;;;21.00;95.50;;;;;;4975682;28;20439;-74
2023/07/28 06:29:57;;;;;;;2.50;2.40;;;21.00;95.30;;;;;;4955709;28;20540;-74
2023/07/28 06:32:23;;;;;;;2.47;2.37;;;21.00;95.00;;;;;;4987940;28;20431;-74
2023/07/28 06:34:50;;;;;;;3.10;2.80;;;21.00;95.30;;;;;;4971707;28;21114;-74
2023/07/28 06:37:16;;;;;;;5.57;2.60;;;21.00;95.50;;;;;;4984726;28;20472;-74
2023/07/28 06:39:44;;;;;;;2.97;2.77;;;21.00;95.50;;;;;;4971503;28;20511;-75
2023/07/28 06:42:13;;;;;;;3.03;2.30;;;21.00;95.30;;;;;;4982384;28;20450;-75
2023/07/28 06:44:39;;;;;;;2.90;2.70;;;21.00;95.20;;;;;;4971099;28;20504;-75
2023/07/28 06:47:05;;;;;;;2.60;2.40;;;21.00;95.10;;;;;;4972322;28;20448;-75
2023/07/28 06:49:32;;;;;;;2.70;2.50;;;21.00;94.90;;;;;;4970541;28;21142;-77
2023/07/28 06:52:01;;;;;;;2.37;2.27;;;21.00;95.10;;;;;;4986591;28;20547;-74
2023/07/28 06:54:31;;;;;;;2.50;2.40;;;21.00;95.00;;;;;;4986469;28;20438;-75
2023/07/28 06:57:00;;;;;;;2.67;2.57;;;21.00;95.00;;;;;;4972204;28;20450;-76
2023/07/28 06:59:29;;;;;;;2.50;2.40;;;21.00;94.90;;;;;;4989285;28;20884;-75
2023/07/28 07:01:55;;;;;;;6.87;2.87;;;21.00;94.80;;;;;;4972641;28;20436;-75
2023/07/28 07:04:21;;;;;;;2.67;2.57;;;21.10;95.00;;;;;;4985375;28;20444;-76
2023/07/28 07:06:49;;;;;;;3.00;2.80;;;21.00;95.00;;;;;;4989325;28;20419;-77
2023/07/28 07:09:20;;;;;;;2.57;2.47;;;21.00;95.20;;;;;;4956456;28;20551;-74
2023/07/28 07:11:49;;;;;;;3.30;3.10;;;21.00;95.30;;;;;;4988044;28;20463;-75
2023/07/28 07:14:15;;;;;;;3.23;3.03;;;21.00;95.30;;;;;;4954150;28;20774;-76
2023/07/28 07:16:48;;;;;;;3.10;2.90;;;21.00;95.20;;;;;;4955310;28;20439;-75
2023/07/28 07:19:16;;;;;;;2.70;2.60;;;21.10;95.10;;;;;;4971373;28;20475;-76
2023/07/28 07:21:44;;;;;;;2.60;2.50;;;21.00;95.10;;;;;;4954826;28;20429;-74
2023/07/28 07:24:16;;;;;;;2.83;2.63;;;21.10;95.20;;;;;;4954951;28;20473;-74
2023/07/28 07:26:47;;;;;;;3.00;2.80;;;21.00;95.50;;;;;;4987054;28;20480;-75
2023/07/28 07:29:15;;;;;;;3.00;2.80;;;21.10;95.60;;;;;;4971144;28;20538;-76
2023/07/28 07:31:41;;;;;;;2.87;2.67;;;21.10;96.00;;;;;;4988617;28;20531;-74
2023/07/28 07:34:09;;;;;;;2.60;2.50;;;21.00;95.60;;;;;;4970931;28;20236;-75
2023/07/28 07:36:35;;;;;;;2.90;2.70;;;21.00;95.90;;;;;;4971332;28;20521;-74
2023/07/28 07:39:04;;;;;;;2.63;2.43;;;21.10;96.30;;;;;;4988567;28;20476;-76
2023/07/28 07:41:30;;;;;;;2.83;2.63;;;21.00;95.90;;;;;;4974043;28;20974;-74
2023/07/28 07:43:59;;;;;;;2.73;2.53;;;21.10;95.80;;;;;;4988882;28;20443;-75
2023/07/28 07:46:25;;;;;;;3.30;3.10;;;21.10;95.90;;;;;;4988525;28;20903;-75
2023/07/28 07:48:51;;;;;;;3.47;3.27;;;21.10;96.30;;;;;;4971650;28;20442;-75
2023/07/28 07:51:17;;;;;;;3.00;2.80;;;21.10;96.60;;;;;;4983406;28;20861;-75
2023/07/28 07:53:43;;;;;;;3.30;3.10;;;21.10;96.30;;;;;;4981554;28;20863;-74
2023/07/28 07:56:09;;;;;;;2.97;2.77;;;21.10;96.70;;;;;;4970327;28;20444;-73
2023/07/28 07:58:38;;;;;;;2.97;2.67;;;21.10;97.00;;;;;;4969415;28;20547;-74
2023/07/28 08:01:05;;;;;;;3.00;2.70;;;21.10;96.90;;;;;;4970430;28;20432;-74
2023/07/28 08:03:36;;;;;;;2.93;2.73;;;21.10;97.00;;;;;;5062185;22;20504;-75
2023/07/28 08:06:02;;;;;;;2.50;2.30;;;21.10;97.40;;;;;;5051864;28;20398;-75
2023/07/28 08:08:29;;;;;;;2.73;2.53;;;21.10;97.30;;;;;;5034401;28;20483;-76
2023/07/28 08:10:58;;;;;;;2.90;2.70;;;21.10;97.50;;;;;;5019486;28;20445;-75
2023/07/28 08:13:25;;;;;;;3.20;3.00;;;21.10;97.60;;;;;;5035266;28;20491;-75
2023/07/28 08:15:51;;;;;;;2.83;2.60;;;21.10;97.40;;;;;;5052031;28;20943;-75
2023/07/28 08:18:17;;;;;;;2.47;2.37;;;21.10;97.70;;;;;;5054382;28;20599;-75
2023/07/28 08:20:43;;;;;;;3.00;2.80;;;21.10;97.80;;;;;;5055447;28;20447;-75
2023/07/28 08:23:12;;;;;;;3.40;3.20;;;21.10;97.70;;;;;;5037930;28;20436;-72
2023/07/28 08:25:40;;;;;;;2.40;2.30;;;21.10;97.50;;;;;;5039127;28;20484;-72
2023/07/28 08:28:06;;;;;;;2.60;2.40;;;21.10;97.20;;;;;;5050842;28;20406;-72
2023/07/28 08:30:32;;;;;;;2.80;2.60;;;21.10;97.50;;;;;;5033375;28;20214;-72
2023/07/28 08:32:59;;;;;;;2.70;2.60;;;21.10;97.40;;;;;;5037605;28;20422;-73
2023/07/28 08:35:25;;;;;;;3.17;2.97;;;21.10;97.80;;;;;;5025868;28;20983;-72
2023/07/28 08:37:54;;;;;;;5.50;3.33;;;21.10;98.10;;;;;;5050835;28;20494;-72
2023/07/28 08:40:23;;;;;;;3.50;2.90;;;21.10;97.70;;;;;;5042549;28;20439;-72
2023/07/28 08:42:51;;;;;;;2.73;2.63;;;21.10;97.60;;;;;;5071505;28;20406;-73
2023/07/28 08:45:18;;;;;;;2.57;2.47;;;21.10;97.90;;;;;;5041730;28;20990;-72
2023/07/28 08:47:45;;;;;;;2.70;2.50;;;21.10;98.20;;;;;;5016374;28;20442;-73
2023/07/28 08:50:11;;;;;;;2.90;2.70;;;21.10;98.20;;;;;;5032718;28;20555;-72
2023/07/28 08:52:37;;;;;;;2.47;2.27;;;21.10;98.20;;;;;;5051860;28;20405;-72
2023/07/28 08:55:04;;;;;;;2.90;2.70;;;21.10;98.20;;;;;;5044797;28;20433;-73
2023/07/28 08:57:35;;;;;;;2.90;2.70;;;21.10;98.30;;;;;;5036009;28;20465;-72
2023/07/28 09:00:13;;;;;;;2.80;2.60;;;21.10;98.50;;;;;;5052813;28;21117;-76
2023/07/28 09:02:42;;;;;;;3.33;3.13;;;21.20;98.50;;;;;;5032992;28;20533;-72
2023/07/28 09:05:18;;;;;;;3.47;3.00;;;21.10;98.70;;;;;;5022327;28;20530;-71
2023/07/28 09:07:47;;;;;;;3.43;3.10;;;21.20;98.70;;;;;;5031737;28;20959;-72
2023/07/28 09:10:13;;;;;;;3.37;3.17;;;21.20;98.90;;;;;;5039780;28;20453;-71
2023/07/28 09:12:48;;;;;;;3.53;3.30;;;21.20;98.80;;;;;;5016224;28;20817;-69
2023/07/28 09:15:17;;;;;;;3.93;3.63;;;21.20;99.00;;;;;;5025554;28;20438;-71
2023/07/28 09:17:44;;;;;;;3.20;3.00;;;21.20;99.00;;;;;;5047330;28;20455;-71
2023/07/28 09:20:19;;;;;;;2.90;2.70;;;21.10;99.20;;;;;;5038294;28;20488;-70
2023/07/28 09:22:46;;;;;;;3.37;3.17;;;21.20;99.30;;;;;;5030941;28;20414;-70
2023/07/28 09:25:14;;;;;;;3.33;3.03;;;21.20;99.60;;;;;;5038426;28;20514;-69
2023/07/28 09:27:54;;;;;;;3.57;3.27;;;21.20;99.30;;;;;;5019460;28;20433;-72
2023/07/28 09:30:21;;;;;;;4.07;3.00;;;21.20;99.30;;;;;;5045078;28;20522;-71
2023/07/28 09:32:52;;;;;;;5.97;3.97;;;21.20;99.80;;;;;;5035718;28;20424;-71
2023/07/28 09:35:22;;;;;;;3.10;2.90;;;21.20;99.40;;;;;;5032584;28;20435;-71
2023/07/28 09:37:54;;;;;;;3.33;3.13;;;21.20;99.40;;;;;;5061843;28;20548;-71
2023/07/28 09:40:23;;;;;;;3.23;3.03;;;21.20;99.20;;;;;;5052089;28;20564;-71
2023/07/28 09:42:54;;;;;;;3.17;2.97;;;21.20;99.40;;;;;;5047880;28;20468;-71
2023/07/28 09:45:26;;;;;;;2.93;2.73;;;21.20;99.00;;;;;;5033655;28;20458;-71
2023/07/28 09:47:57;;;;;;;3.00;2.80;;;21.20;98.80;;;;;;5055929;28;20432;-71
2023/07/28 09:50:27;;;;;;;3.23;3.00;;;21.20;99.00;;;;;;5050289;28;20473;-71
2023/07/28 09:53:01;;;;;;;3.30;3.10;;;21.20;98.60;;;;;;5031766;28;20863;-71
2023/07/28 09:55:28;;;;;;;4.47;4.03;;;21.30;98.90;;;;;;5042243;28;20963;-72
2023/07/28 09:57:56;;;;;;;3.70;3.40;;;21.30;99.20;;;;;;5069640;28;21027;-76
2023/07/28 10:00:23;;;;;;;3.10;2.90;;;21.30;99.20;;;;;;5046115;28;20476;-75
2023/07/28 10:02:56;;;;;;;3.43;3.13;;;21.30;99.30;;;;;;5049135;28;20469;-77
2023/07/28 10:05:24;;;;;;;3.57;3.37;;;21.30;99.40;;;;;;5034775;28;20471;-77
2023/07/28 10:07:56;;;;;;;3.50;3.20;;;21.30;99.70;;;;;;5015976;28;20417;-76
2023/07/28 10:10:23;;;;;;;3.73;3.43;;;21.30;98.90;;;;;;5032150;28;20447;-79
2023/07/28 10:12:51;;;;;;;3.93;3.63;;;21.30;99.30;;;;;;5017236;28;20517;-75
2023/07/28 10:15:22;;;;;;;3.50;3.30;;;21.30;99.60;;;;;;5057415;28;20543;-76
2023/07/28 10:17:54;;;;;;;3.40;3.10;;;21.30;99.20;;;;;;5031218;28;20465;-76
2023/07/28 10:20:27;;;;;;;3.40;3.10;;;21.30;99.10;;;;;;5015669;28;20458;-77
2023/07/28 10:23:24;;;;;;;3.70;3.50;;;21.30;99.50;;;;;;5016134;28;20646;-77
2023/07/28 10:26:02;;;;;;;3.33;3.03;;;21.40;99.20;;;;;;5015742;28;20496;-76
2023/07/28 10:28:34;;;;;;;3.37;3.17;;;21.40;99.10;;;;;;5051736;28;20422;-76
2023/07/28 10:31:01;;;;;;;3.83;3.10;;;21.40;99.30;;;;;;5068724;28;20429;-75
2023/07/28 10:33:41;;;;;;;3.13;2.83;;;21.40;99.10;;;;;;5031999;28;20427;-75
2023/07/28 10:36:22;;;;;;;3.30;3.10;;;21.40;99.30;;;;;;5065441;28;20429;-75
2023/07/28 10:39:16;;;;;;;3.80;3.60;;;21.40;99.40;;;;;;5049026;28;20600;-75
2023/07/28 10:42:02;;;;;;;3.50;3.30;;;21.40;99.40;;;;;;5048153;28;20471;-75
2023/07/28 10:44:34;;;;;;;2.67;2.57;;;21.40;99.60;;;;;;5055953;28;20467;-76
2023/07/28 10:47:01;;;;;;;3.30;3.10;;;21.50;99.80;;;;;;5051774;28;20812;-76
2023/07/28 10:49:28;;;;;;;4.30;3.27;;;21.50;99.70;;;;;;5043724;28;20471;-75
2023/07/28 10:51:56;;;;;;;3.53;3.33;;;21.50;99.90;;;;;;5026917;28;20944;-75
2023/07/28 10:54:25;;;;;;;3.60;3.20;;;21.50;99.60;;;;;;5040428;28;20458;-74
2023/07/28 10:56:51;;;;;;;3.57;3.03;;;21.50;99.40;;;;;;5042820;28;20482;-77
2023/07/28 10:59:17;;;;;;;3.50;3.00;;;21.60;99.40;;;;;;5048958;28;20560;-77
2023/07/28 11:01:43;;;;;;;3.23;3.00;;;21.60;99.40;;;;;;5044272;28;20199;-77
2023/07/28 11:04:19;;;;;;;3.33;3.13;;;21.60;99.20;;;;;;5068902;28;20436;-76
2023/07/28 11:06:49;;;;;;;3.40;3.20;;;21.60;99.30;;;;;;5026225;28;20440;-73
2023/07/28 11:09:23;;;;;;;2.83;2.60;;;21.70;99.30;;;;;;5020576;28;20456;-72
2023/07/28 11:11:50;;;;;;;2.87;2.67;;;21.70;99.20;;;;;;5031217;28;20449;-73
2023/07/28 11:14:17;;;;;;;3.57;3.27;;;21.70;99.20;;;;;;5060558;28;20880;-75
2023/07/28 11:16:50;;;;;;;3.10;2.90;;;21.70;99.20;;;;;;5038641;28;20496;-73
2023/07/28 11:19:19;;;;;;;3.03;2.83;;;21.80;99.10;;;;;;5047336;28;20462;-73
2023/07/28 11:21:51;;;;;;;3.03;2.83;;;21.80;99.00;;;;;;5022782;28;20532;-73
2023/07/28 11:24:23;;;;;;;3.30;3.10;;;21.80;98.70;;;;;;5065146;28;20473;-73
2023/07/28 11:26:50;;;;;;;3.20;3.00;;;21.80;98.70;;;;;;5020750;28;20469;-72
2023/07/28 11:29:18;;;;;;;3.17;2.97;;;21.80;98.60;;;;;;5019967;28;21063;-74
2023/07/28 11:31:45;;;;;;;2.80;2.60;;;21.80;98.60;;;;;;5030269;28;20445;-73
2023/07/28 11:34:18;;;;;;;2.80;2.70;;;21.80;98.40;;;;;;5030219;28;20418;-74
2023/07/28 11:36:45;;;;;;;3.20;3.00;;;21.80;98.50;;;;;;5043726;28;20507;-74
2023/07/28 11:39:15;;;;;;;3.23;3.03;;;21.80;98.70;;;;;;5022532;28;20469;-74
2023/07/28 11:41:44;;;;;;;3.20;3.00;;;21.90;98.70;;;;;;5021525;28;20462;-75
2023/07/28 11:44:12;;;;;;;2.70;2.60;;;21.90;99.00;;;;;;5013410;28;20957;-74
2023/07/28 11:46:42;;;;;;;2.70;2.60;;;21.90;98.80;;;;;;5049358;28;20422;-74
2023/07/28 11:49:22;;;;;;;2.70;2.50;;;21.90;98.60;;;;;;5030727;28;20452;-74
2023/07/28 11:51:53;;;;;;;3.37;3.13;;;21.90;98.60;;;;;;5048151;28;20417;-75
2023/07/28 11:54:23;;;;;;;3.30;3.10;;;21.90;98.60;;;;;;5034041;28;20464;-75
2023/07/28 11:56:53;;;;;;;3.10;2.90;;;21.90;98.50;;;;;;5001160;28;20446;-75
2023/07/28 11:59:20;;;;;;;2.83;2.63;;;21.90;98.40;;;;;;5051236;28;20527;-75
2023/07/28 12:01:58;;;;;;;2.73;2.53;;;21.90;98.20;;;;;;5016875;28;20745;-74
2023/07/28 12:04:34;;;;;;;2.83;2.73;;;21.90;98.10;;;;;;5033823;28;20525;-75
2023/07/28 12:07:13;;;;;;;3.13;2.93;;;21.90;97.90;;;;;;5051428;28;20390;-74
2023/07/28 12:09:46;;;;;;;4.30;3.07;;;22.00;98.20;;;;;;5033697;28;20444;-75
2023/07/28 12:12:15;;;;;;;3.10;2.80;;;21.90;98.40;;;;;;5051213;28;20483;-75
2023/07/28 12:14:46;;;;;;;2.97;2.77;;;22.00;98.60;;;;;;5033339;28;20401;-74
2023/07/28 12:17:17;;;;;;;2.80;2.60;;;22.00;99.10;;;;;;5017016;28;20464;-75
2023/07/28 12:20:14;;;;;;;3.07;2.90;;;22.00;99.20;;;;;;5017096;28;20469;-74
2023/07/28 12:22:41;;;;;;;2.90;2.70;;;22.00;99.20;;;;;;5016598;28;20422;-74
2023/07/28 12:25:11;;;;;;;3.03;2.83;;;22.00;99.40;;;;;;5016699;28;20442;-75
2023/07/28 12:27:37;;;;;;;2.43;2.33;;;22.00;99.40;;;;;;5033162;28;20525;-74
2023/07/28 12:30:08;;;;;;;3.07;2.87;;;22.00;99.40;;;;;;5016567;28;20521;-75
2023/07/28 12:32:39;;;;;;;2.80;2.60;;;22.00;99.40;;;;;;5016405;28;20475;-74
2023/07/28 12:35:10;;;;;;;3.47;3.17;;;22.10;99.40;;;;;;5032768;28;20486;-75
2023/07/28 12:37:41;;;;;;;3.07;2.87;;;22.10;99.40;;;;;;5032658;28;20527;-74
2023/07/28 12:40:08;;;;;;;3.00;2.80;;;22.10;99.30;;;;;;5050168;28;20508;-74
2023/07/28 12:42:34;;;;;;;2.93;2.83;;;22.10;99.30;;;;;;5050264;28;21253;-75
2023/07/28 12:45:00;;;;;;;3.00;2.80;;;22.10;99.00;;;;;;5050486;28;20395;-75
2023/07/28 12:47:29;;;;;;;4.30;2.43;;;22.10;99.10;;;;;;5033354;28;20861;-77
2023/07/28 12:49:57;;;;;;;2.97;2.77;;;22.20;99.30;;;;;;5035205;28;20538;-77
2023/07/28 12:52:25;;;;;;;2.93;2.73;;;22.20;99.50;;;;;;5017979;28;20512;-75
2023/07/28 12:54:54;;;;;;;2.67;2.57;;;22.20;99.40;;;;;;5016708;28;20446;-75
2023/07/28 12:57:20;;;;;;;2.53;2.43;;;22.20;99.30;;;;;;5016014;28;20984;-75
2023/07/28 12:59:46;;;;;;;3.00;2.80;;;22.20;99.30;;;;;;5049955;28;20431;-74
2023/07/28 13:02:12;;;;;;;2.30;2.20;;;22.30;99.30;;;;;;5015536;28;20540;-75